createdAt,value
2019-05-02T00:01:15.373Z,9.70
2019-05-02T00:03:45.110Z,9.80
2019-05-02T00:06:14.919Z,9.70
2019-05-02T00:08:46.989Z,9.70
2019-05-02T00:11:16.354Z,9.70
2019-05-02T00:13:45.651Z,9.50
2019-05-02T00:16:15.537Z,9.30
2019-05-02T00:18:44.867Z,9.40
2019-05-02T00:21:14.167Z,9.40
2019-05-02T00:23:43.522Z,9.20
2019-05-02T00:26:13.260Z,9.40
2019-05-02T00:28:47.937Z,9.40
2019-05-02T00:31:17.823Z,9.30
2019-05-02T00:33:47.125Z,9.30
2019-05-02T00:36:16.420Z,9.30
2019-05-02T00:38:45.766Z,9.30
2019-05-02T00:41:15.056Z,9.20
2019-05-02T00:43:44.360Z,9.20
2019-05-02T00:46:13.693Z,9.10
2019-05-02T00:48:44.995Z,9.10
2019-05-02T00:51:14.609Z,9.10
2019-05-02T00:53:44.380Z,9.10
2019-05-02T00:56:14.989Z,9.10
2019-05-02T00:58:44.282Z,9.00
2019-05-02T01:01:29.506Z,8.90
2019-05-02T01:04:00.155Z,9.00
2019-05-02T01:06:29.450Z,9.10
2019-05-02T01:08:58.789Z,9.20
2019-05-02T01:11:31.836Z,9.00
2019-05-02T01:13:59.098Z,9.10
2019-05-02T01:16:28.700Z,9.20
2019-05-02T01:18:58.314Z,9.10
2019-05-02T01:21:27.606Z,9.00
2019-05-02T01:23:58.867Z,9.00
2019-05-02T01:26:30.622Z,8.90
2019-05-02T01:29:16.723Z,8.80
2019-05-02T01:31:49.906Z,8.80
2019-05-02T01:34:29.845Z,8.70
2019-05-02T01:37:06.736Z,8.80
2019-05-02T01:39:37.960Z,8.90
2019-05-02T01:42:07.105Z,8.90
2019-05-02T01:44:37.982Z,8.80
2019-05-02T01:47:07.442Z,8.70
2019-05-02T01:49:36.724Z,8.80
2019-05-02T01:52:06.157Z,8.60
2019-05-02T01:54:35.507Z,8.60
2019-05-02T01:57:08.720Z,8.60
2019-05-02T01:59:36.255Z,8.70
2019-05-02T02:02:06.014Z,8.70
2019-05-02T02:04:35.690Z,8.60
2019-05-02T02:07:05.798Z,8.60
2019-05-02T02:09:38.753Z,8.70
2019-05-02T02:12:09.728Z,8.60
2019-05-02T02:14:37.236Z,8.50
2019-05-02T02:17:10.058Z,8.50
2019-05-02T02:19:40.692Z,8.50
2019-05-02T02:22:11.802Z,8.40
2019-05-02T02:24:42.742Z,8.40
2019-05-02T02:27:12.279Z,8.30
2019-05-02T02:29:44.078Z,8.40
2019-05-02T02:32:12.645Z,8.40
2019-05-02T02:34:41.939Z,8.30
2019-05-02T02:37:12.460Z,8.30
2019-05-02T02:39:42.299Z,8.20
2019-05-02T02:42:12.382Z,8.00
2019-05-02T02:44:46.078Z,8.00
2019-05-02T02:47:19.046Z,8.20
2019-05-02T02:49:46.636Z,8.20
2019-05-02T02:52:15.979Z,8.20
2019-05-02T02:54:45.268Z,8.30
2019-05-02T02:57:25.776Z,8.30
2019-05-02T02:59:45.636Z,8.30
2019-05-02T03:02:14.945Z,8.40
2019-05-02T03:04:46.039Z,8.40
2019-05-02T03:07:25.360Z,8.50
2019-05-02T03:09:49.044Z,8.40
2019-05-02T03:12:22.682Z,8.50
2019-05-02T03:14:53.876Z,8.40
2019-05-02T03:17:25.937Z,8.30
2019-05-02T03:20:01.381Z,8.40
2019-05-02T03:22:25.318Z,8.40
2019-05-02T03:24:54.780Z,8.50
2019-05-02T03:27:29.831Z,8.70
2019-05-02T03:29:55.141Z,8.60
2019-05-02T03:32:34.383Z,8.60
2019-05-02T03:34:59.040Z,8.50
2019-05-02T03:37:28.715Z,8.60
2019-05-02T03:40:00.472Z,8.50
2019-05-02T03:42:29.308Z,8.50
2019-05-02T03:45:04.259Z,8.50
2019-05-02T03:47:30.342Z,8.50
2019-05-02T03:50:00.055Z,8.50
2019-05-02T03:52:29.350Z,8.50
2019-05-02T03:54:58.719Z,8.50
2019-05-02T03:57:33.527Z,8.50
2019-05-02T03:59:59.900Z,8.40
2019-05-02T04:02:29.580Z,8.20
2019-05-02T04:05:00.484Z,8.40
2019-05-02T04:07:39.758Z,8.40
2019-05-02T04:10:03.899Z,8.50
2019-05-02T04:12:35.751Z,8.50
2019-05-02T04:15:09.599Z,8.50
2019-05-02T04:17:39.791Z,8.30
2019-05-02T04:20:12.450Z,8.10
2019-05-02T04:22:42.778Z,8.20
2019-05-02T04:25:12.546Z,8.30
2019-05-02T04:27:42.610Z,8.20
2019-05-02T04:30:14.272Z,8.20
2019-05-02T04:32:43.567Z,8.20
2019-05-02T04:35:14.044Z,8.20
2019-05-02T04:37:43.788Z,8.20
2019-05-02T04:40:13.279Z,8.20
2019-05-02T04:42:42.627Z,8.20
2019-05-02T04:45:25.154Z,8.10
2019-05-02T04:47:57.577Z,8.20
2019-05-02T04:50:17.860Z,8.20
2019-05-02T04:52:48.393Z,8.20
2019-05-02T04:55:26.162Z,8.20
2019-05-02T04:57:50.856Z,8.20
2019-05-02T05:00:22.918Z,8.30
2019-05-02T05:02:53.279Z,8.40
2019-05-02T05:05:25.481Z,8.30
2019-05-02T05:07:53.880Z,8.30
2019-05-02T05:10:27.673Z,8.40
2019-05-02T05:12:57.224Z,8.50
2019-05-02T05:15:37.284Z,8.40
2019-05-02T05:17:58.246Z,8.50
2019-05-02T05:20:28.038Z,8.60
2019-05-02T05:22:58.094Z,8.60
2019-05-02T05:25:35.111Z,8.50
2019-05-02T05:28:06.134Z,8.70
2019-05-02T05:30:37.694Z,8.80
2019-05-02T05:33:07.637Z,8.80
2019-05-02T05:35:38.514Z,8.80
2019-05-02T05:38:07.978Z,8.70
2019-05-02T05:40:37.713Z,8.60
2019-05-02T05:43:12.103Z,8.60
2019-05-02T05:45:50.677Z,8.70
2019-05-02T05:48:09.033Z,8.80
2019-05-02T05:50:41.427Z,8.80
2019-05-02T05:53:12.448Z,8.80
2019-05-02T05:55:40.430Z,8.90
2019-05-02T05:58:15.222Z,8.90
2019-05-02T06:00:41.014Z,9.00
2019-05-02T06:03:13.933Z,9.10
2019-05-02T06:05:42.309Z,9.10
2019-05-02T06:08:13.854Z,9.20
2019-05-02T06:10:43.924Z,9.10
2019-05-02T06:13:13.941Z,9.20
2019-05-02T06:15:45.842Z,9.40
2019-05-02T06:18:14.296Z,9.20
2019-05-02T06:20:43.661Z,9.30
2019-05-02T06:23:12.958Z,9.40
2019-05-02T06:25:43.248Z,9.30
2019-05-02T06:28:12.562Z,9.30
2019-05-02T06:30:41.834Z,9.50
2019-05-02T06:33:11.182Z,9.60
2019-05-02T06:35:40.777Z,9.60
2019-05-02T06:38:10.658Z,9.60
2019-05-02T06:40:44.708Z,9.60
2019-05-02T06:43:11.414Z,9.70
2019-05-02T06:45:40.909Z,9.70
2019-05-02T06:48:17.225Z,9.60
2019-05-02T06:50:41.282Z,9.60
2019-05-02T06:53:11.228Z,9.60
2019-05-02T06:55:41.260Z,9.50
2019-05-02T06:58:10.841Z,9.50
2019-05-02T07:00:56.869Z,9.50
2019-05-02T07:03:11.692Z,9.60
2019-05-02T07:05:41.155Z,9.70
2019-05-02T07:08:11.850Z,9.80
2019-05-02T07:10:44.723Z,9.80
2019-05-02T07:13:15.083Z,9.80
2019-05-02T07:15:57.678Z,9.80
2019-05-02T07:18:28.986Z,9.90
2019-05-02T07:20:58.285Z,9.90
2019-05-02T07:23:28.129Z,9.90
2019-05-02T07:26:00.131Z,9.70
2019-05-02T07:28:28.458Z,9.90
2019-05-02T07:30:58.189Z,10.00
2019-05-02T07:33:32.249Z,9.90
2019-05-02T07:36:00.107Z,10.00
2019-05-02T07:38:30.044Z,10.00
2019-05-02T07:40:59.509Z,10.00
2019-05-02T07:43:29.094Z,10.00
2019-05-02T07:45:58.456Z,9.90
2019-05-02T07:48:27.750Z,10.10
2019-05-02T07:50:57.129Z,10.10
2019-05-02T07:53:26.402Z,10.20
2019-05-02T07:55:55.707Z,10.40
2019-05-02T07:58:25.001Z,10.30
2019-05-02T08:00:54.343Z,10.30
2019-05-02T08:03:23.648Z,10.40
2019-05-02T08:05:54.458Z,10.50
2019-05-02T08:08:29.787Z,10.40
2019-05-02T08:11:01.854Z,10.40
2019-05-02T08:13:31.332Z,10.30
2019-05-02T08:15:59.809Z,10.50
2019-05-02T08:18:30.365Z,10.50
2019-05-02T08:21:00.154Z,10.70
2019-05-02T08:23:29.836Z,10.80
2019-05-02T08:25:59.165Z,10.70
2019-05-02T08:28:33.031Z,10.90
2019-05-02T08:31:02.417Z,11.10
2019-05-02T08:33:34.603Z,10.90
2019-05-02T08:36:03.084Z,10.80
2019-05-02T08:38:32.451Z,10.90
2019-05-02T08:41:01.751Z,10.90
2019-05-02T08:43:31.290Z,10.90
2019-05-02T08:46:00.732Z,11.10
2019-05-02T08:48:30.043Z,11.20
2019-05-02T08:50:59.412Z,11.40
2019-05-02T08:53:29.195Z,11.40
2019-05-02T08:55:58.507Z,11.40
2019-05-02T08:58:27.820Z,11.40
2019-05-02T09:00:57.166Z,11.40
2019-05-02T09:03:26.470Z,11.40
2019-05-02T09:06:05.592Z,11.50
2019-05-02T09:08:26.836Z,11.40
2019-05-02T09:10:56.137Z,11.40
2019-05-02T09:13:29.237Z,11.50
2019-05-02T09:15:56.755Z,11.80
2019-05-02T09:18:35.057Z,11.80
2019-05-02T09:20:57.085Z,11.80
2019-05-02T09:23:27.565Z,11.80
2019-05-02T09:25:57.583Z,11.90
2019-05-02T09:28:26.897Z,12.00
2019-05-02T09:30:57.441Z,12.20
2019-05-02T09:33:27.844Z,12.30
2019-05-02T09:35:57.142Z,12.30
2019-05-02T09:38:26.767Z,12.30
2019-05-02T09:40:56.385Z,12.30
2019-05-02T09:43:29.231Z,12.30
2019-05-02T09:45:57.114Z,12.40
2019-05-02T09:48:27.029Z,12.50
2019-05-02T09:50:58.181Z,12.50
2019-05-02T09:53:27.483Z,12.40
2019-05-02T09:55:58.059Z,12.50
2019-05-02T09:58:27.672Z,12.60
2019-05-02T10:01:02.034Z,12.60
2019-05-02T10:03:32.010Z,12.80
2019-05-02T10:06:03.124Z,13.10
2019-05-02T10:08:32.625Z,13.30
2019-05-02T10:11:02.825Z,13.40
2019-05-02T10:13:33.716Z,13.40
2019-05-02T10:16:03.329Z,13.30
2019-05-02T10:18:33.032Z,13.40
2019-05-02T10:21:03.184Z,13.60
2019-05-02T10:23:32.829Z,13.70
2019-05-02T10:26:02.823Z,13.50
2019-05-02T10:28:32.275Z,13.70
2019-05-02T10:31:02.254Z,13.80
2019-05-02T10:33:33.797Z,13.70
2019-05-02T10:36:03.037Z,13.90
2019-05-02T10:38:32.701Z,14.00
2019-05-02T10:41:04.779Z,14.10
2019-05-02T10:43:33.164Z,14.10
2019-05-02T10:46:12.426Z,14.20
2019-05-02T10:48:42.651Z,14.30
2019-05-02T10:51:19.563Z,14.60
2019-05-02T10:53:52.643Z,14.70
2019-05-02T10:56:22.035Z,14.50
2019-05-02T10:58:52.324Z,14.50
2019-05-02T11:01:23.584Z,14.60
2019-05-02T11:03:54.615Z,14.70
2019-05-02T11:06:23.955Z,14.80
2019-05-02T11:08:53.262Z,14.70
2019-05-02T11:11:23.234Z,14.60
2019-05-02T11:14:06.168Z,14.60
2019-05-02T11:16:39.890Z,14.70
2019-05-02T11:19:13.021Z,14.80
2019-05-02T11:21:53.568Z,14.80
2019-05-02T11:24:14.319Z,14.90
2019-05-02T11:26:43.810Z,15.00
2019-05-02T11:29:13.611Z,15.00
2019-05-02T11:31:42.927Z,15.30
2019-05-02T11:34:12.566Z,15.20
2019-05-02T11:36:42.168Z,15.10
2019-05-02T11:39:19.953Z,15.40
2019-05-02T11:41:43.133Z,15.50
2019-05-02T11:44:12.514Z,15.70
2019-05-02T11:46:45.610Z,15.50
2019-05-02T11:49:12.853Z,15.60
2019-05-02T11:51:42.319Z,15.70
2019-05-02T11:54:13.010Z,15.70
2019-05-02T11:56:48.903Z,15.90
2019-05-02T11:59:14.985Z,16.00
2019-05-02T12:01:56.960Z,16.00
2019-05-02T12:04:17.143Z,16.00
2019-05-02T12:06:50.067Z,16.00
2019-05-02T12:09:18.536Z,16.40
2019-05-02T12:11:52.693Z,16.50
2019-05-02T12:14:18.992Z,16.40
2019-05-02T12:16:48.296Z,16.40
2019-05-02T12:19:17.629Z,16.40
2019-05-02T12:21:56.223Z,16.20
2019-05-02T12:24:25.493Z,16.30
2019-05-02T12:26:54.794Z,16.60
2019-05-02T12:29:24.147Z,16.60
2019-05-02T12:31:56.399Z,16.50
2019-05-02T12:34:25.474Z,16.60
2019-05-02T12:36:54.818Z,16.40
2019-05-02T12:39:24.128Z,16.70
2019-05-02T12:41:54.231Z,16.50
2019-05-02T12:44:24.054Z,16.50
2019-05-02T12:46:53.623Z,16.50
2019-05-02T12:49:27.718Z,16.20
2019-05-02T12:51:54.263Z,16.20
2019-05-02T12:54:23.566Z,16.00
2019-05-02T12:56:53.022Z,16.00
2019-05-02T12:59:22.679Z,15.80
2019-05-02T13:01:52.075Z,15.80
2019-05-02T13:04:22.944Z,15.70
2019-05-02T13:06:53.140Z,15.50
2019-05-02T13:09:23.423Z,15.20
2019-05-02T13:12:13.181Z,15.00
2019-05-02T13:14:42.379Z,14.80
2019-05-02T13:17:12.060Z,14.30
2019-05-02T13:19:55.407Z,14.00
2019-05-02T13:22:16.932Z,13.70
2019-05-02T13:24:54.131Z,13.60
2019-05-02T13:27:19.157Z,13.50
2019-05-02T13:29:49.943Z,13.40
2019-05-02T13:32:26.718Z,13.40
2019-05-02T13:34:57.736Z,13.30
2019-05-02T13:37:28.851Z,13.20
2019-05-02T13:40:02.372Z,13.30
2019-05-02T13:42:33.580Z,13.30
2019-05-02T13:45:09.961Z,13.30
2019-05-02T13:47:39.254Z,13.40
2019-05-02T13:50:09.861Z,13.40
2019-05-02T13:52:39.210Z,13.60
2019-05-02T13:55:11.840Z,13.60
2019-05-02T13:57:46.367Z,13.60
2019-05-02T14:00:15.168Z,13.70
2019-05-02T14:02:44.601Z,13.80
2019-05-02T14:05:17.481Z,13.90
2019-05-02T14:07:54.119Z,13.90
2019-05-02T14:10:26.941Z,14.10
2019-05-02T14:12:58.185Z,14.10
2019-05-02T14:15:29.648Z,14.20
2019-05-02T14:17:58.962Z,14.30
2019-05-02T14:20:28.542Z,14.30
2019-05-02T14:22:58.151Z,14.30
2019-05-02T14:25:27.525Z,14.20
2019-05-02T14:27:56.880Z,14.20
2019-05-02T14:30:37.069Z,14.20
2019-05-02T14:33:02.404Z,14.30
2019-05-02T14:35:36.743Z,14.40
2019-05-02T14:38:15.959Z,14.40
2019-05-02T14:40:57.585Z,14.40
2019-05-02T14:43:46.855Z,14.30
2019-05-02T14:46:17.822Z,14.20
2019-05-02T14:48:47.320Z,14.10
2019-05-02T14:51:22.996Z,14.20
2019-05-02T14:53:48.429Z,14.20
2019-05-02T14:56:19.388Z,14.10
2019-05-02T14:58:48.765Z,13.90
2019-05-02T15:01:22.499Z,13.90
2019-05-02T15:03:49.140Z,13.80
2019-05-02T15:06:18.439Z,13.60
2019-05-02T15:08:47.804Z,13.50
2019-05-02T15:11:17.098Z,13.20
2019-05-02T15:13:46.406Z,13.20
2019-05-02T15:16:17.659Z,13.20
2019-05-02T15:18:47.567Z,13.10
2019-05-02T15:21:22.817Z,13.10
2019-05-02T15:23:54.347Z,12.60
2019-05-02T15:26:26.458Z,12.20
2019-05-02T15:28:54.540Z,12.10
2019-05-02T15:31:42.095Z,12.00
2019-05-02T15:34:22.729Z,11.90
2019-05-02T15:36:52.711Z,12.00
2019-05-02T15:41:53.119Z,12.00
2019-05-02T15:44:23.487Z,12.00
2019-05-02T15:46:53.519Z,12.00
2019-05-02T15:49:22.869Z,11.80
2019-05-02T15:51:52.444Z,11.90
2019-05-02T15:54:22.736Z,11.90
2019-05-02T15:57:00.694Z,11.90
2019-05-02T15:59:32.570Z,11.80
2019-05-02T16:02:07.326Z,11.80
2019-05-02T16:04:38.264Z,11.90
2019-05-02T16:07:08.579Z,11.90
2019-05-02T16:09:38.231Z,11.80
2019-05-02T16:12:07.596Z,11.90
2019-05-02T16:14:36.905Z,12.00
2019-05-02T16:17:06.490Z,12.00
2019-05-02T16:19:37.454Z,12.00
2019-05-02T16:22:14.252Z,11.90
2019-05-02T16:24:48.216Z,12.00
2019-05-02T16:27:16.625Z,12.00
2019-05-02T16:29:45.919Z,12.00
2019-05-02T16:32:16.864Z,11.90
2019-05-02T16:34:54.197Z,12.00
2019-05-02T16:37:22.655Z,12.10
2019-05-02T16:39:52.265Z,12.00
2019-05-02T16:42:22.715Z,12.20
2019-05-02T16:44:54.802Z,12.20
2019-05-02T16:47:23.491Z,12.30
2019-05-02T16:49:56.248Z,12.30
2019-05-02T16:52:23.865Z,12.20
2019-05-02T16:54:53.174Z,12.20
2019-05-02T16:57:23.810Z,12.00
2019-05-02T17:00:01.015Z,12.20
2019-05-02T17:02:24.479Z,12.20
2019-05-02T17:04:54.694Z,12.20
2019-05-02T17:07:26.079Z,12.20
2019-05-02T17:10:08.507Z,12.20
2019-05-02T17:12:37.044Z,12.20
2019-05-02T17:15:31.114Z,12.30
2019-05-02T17:17:59.067Z,12.30
2019-05-02T17:20:28.448Z,12.30
2019-05-02T17:23:03.410Z,12.20
2019-05-02T17:25:29.144Z,12.10
2019-05-02T17:28:04.023Z,12.20
2019-05-02T17:30:33.694Z,12.10
2019-05-02T17:33:01.878Z,12.10
2019-05-02T17:35:32.583Z,12.10
2019-05-02T17:38:02.698Z,12.10
2019-05-02T17:40:32.294Z,12.10
2019-05-02T17:43:06.575Z,12.10
2019-05-02T17:45:33.564Z,12.10
2019-05-02T17:48:08.418Z,12.10
2019-05-02T17:50:54.340Z,12.10
2019-05-02T17:53:22.421Z,12.10
2019-05-02T17:55:54.181Z,12.00
2019-05-02T17:58:23.553Z,12.00
2019-05-02T18:00:57.109Z,12.10
2019-05-02T18:03:31.096Z,12.10
2019-05-02T18:05:57.269Z,12.20
2019-05-02T18:08:27.129Z,12.10
2019-05-02T18:11:00.041Z,12.10
2019-05-02T18:13:29.090Z,12.10
2019-05-02T18:15:59.742Z,12.10
2019-05-02T18:18:29.102Z,12.20
2019-05-02T18:20:58.724Z,12.20
2019-05-02T18:23:28.030Z,12.20
2019-05-02T18:26:02.782Z,12.20
2019-05-02T18:28:31.327Z,12.20
2019-05-02T18:31:02.777Z,12.20
2019-05-02T18:33:36.049Z,12.20
2019-05-02T18:36:02.722Z,12.10
2019-05-02T18:38:32.476Z,12.10
2019-05-02T18:41:05.963Z,12.00
2019-05-02T18:43:36.036Z,12.00
2019-05-02T18:46:07.573Z,12.10
2019-05-02T18:48:36.624Z,12.20
2019-05-02T18:51:06.781Z,12.10
2019-05-02T18:53:36.084Z,12.10
2019-05-02T18:56:05.671Z,12.10
2019-05-02T18:58:36.361Z,12.00
2019-05-02T19:01:08.431Z,12.00
2019-05-02T19:03:37.237Z,12.00
2019-05-02T19:06:06.607Z,12.00
2019-05-02T19:08:46.805Z,12.00
2019-05-02T19:11:12.752Z,12.00
2019-05-02T19:13:42.658Z,12.00
2019-05-02T19:16:13.218Z,11.90
2019-05-02T19:18:42.748Z,11.80
2019-05-02T19:21:12.658Z,11.80
2019-05-02T19:23:42.559Z,11.90
2019-05-02T19:26:15.031Z,11.90
2019-05-02T19:28:52.283Z,11.90
2019-05-02T19:31:23.284Z,11.80
2019-05-02T19:33:52.796Z,11.80
2019-05-02T19:36:27.494Z,11.70
2019-05-02T19:38:57.389Z,11.70
2019-05-02T19:41:24.613Z,11.60
2019-05-02T19:43:53.907Z,11.50
2019-05-02T19:46:31.039Z,11.50
2019-05-02T19:48:54.433Z,11.40
2019-05-02T19:51:23.811Z,11.30
2019-05-02T19:53:59.307Z,11.10
2019-05-02T19:56:24.906Z,11.10
2019-05-02T19:58:54.569Z,11.00
2019-05-02T20:01:26.507Z,10.80
2019-05-02T20:03:56.731Z,10.80
2019-05-02T20:06:26.534Z,10.70
2019-05-02T20:08:59.211Z,10.70
2019-05-02T20:11:28.123Z,10.60
2019-05-02T20:14:00.548Z,10.50
2019-05-02T20:16:36.725Z,10.40
2019-05-02T20:19:07.427Z,10.40
2019-05-02T20:21:43.016Z,10.20
2019-05-02T20:24:17.474Z,10.20
2019-05-02T20:26:46.646Z,10.10
2019-05-02T20:29:14.701Z,10.10
2019-05-02T20:31:44.055Z,10.00
2019-05-02T20:34:13.363Z,10.00
2019-05-02T20:36:42.708Z,10.00
2019-05-02T20:39:12.070Z,9.90
2019-05-02T20:41:41.998Z,9.90
2019-05-02T20:44:12.173Z,9.80
2019-05-02T20:46:42.193Z,9.80
2019-05-02T20:49:12.791Z,9.80
2019-05-02T20:51:42.522Z,9.70
2019-05-02T20:54:12.544Z,9.60
2019-05-02T20:56:42.764Z,9.70
2019-05-02T20:59:12.915Z,9.70
2019-05-02T21:01:42.879Z,9.60
2019-05-02T21:04:12.487Z,9.50
2019-05-02T21:06:46.358Z,9.40
2019-05-02T21:09:17.319Z,9.40
2019-05-02T21:11:52.491Z,9.40
2019-05-02T21:14:21.947Z,9.40
2019-05-02T21:16:51.315Z,9.40
2019-05-02T21:19:21.769Z,9.40
2019-05-02T21:21:52.618Z,9.30
2019-05-02T21:24:22.205Z,9.20
2019-05-02T21:26:52.537Z,9.20
2019-05-02T21:29:22.889Z,9.30
2019-05-02T21:31:52.934Z,9.20
2019-05-02T21:34:22.431Z,9.20
2019-05-02T21:36:51.927Z,9.20
2019-05-02T21:39:22.508Z,9.00
2019-05-02T21:41:51.919Z,9.10
2019-05-02T21:44:22.288Z,9.00
2019-05-02T21:46:51.970Z,9.00
2019-05-02T21:49:37.968Z,9.00
2019-05-02T21:52:09.171Z,9.00
2019-05-02T21:54:40.113Z,9.00
2019-05-02T21:57:12.167Z,9.00
2019-05-02T21:59:42.094Z,8.90
2019-05-02T22:02:12.775Z,8.90
2019-05-02T22:04:42.363Z,8.90
2019-05-02T22:07:12.272Z,8.90
2019-05-02T22:09:41.757Z,9.00
2019-05-02T22:12:11.960Z,8.90
2019-05-02T22:14:42.153Z,9.00
2019-05-02T22:17:12.740Z,8.90
2019-05-02T22:19:42.218Z,9.00
2019-05-02T22:22:12.221Z,9.10
2019-05-02T22:24:42.219Z,9.10
2019-05-02T22:27:12.398Z,9.10
2019-05-02T22:29:43.046Z,9.10
2019-05-02T22:32:12.480Z,9.10
2019-05-02T22:34:42.629Z,9.20
2019-05-02T22:37:14.678Z,9.10
2019-05-02T22:39:51.329Z,9.20
2019-05-02T22:42:21.864Z,9.20
2019-05-02T22:44:51.246Z,9.20
2019-05-02T22:47:22.595Z,9.20
2019-05-02T22:49:51.968Z,9.20
2019-05-02T22:52:21.786Z,9.20
2019-05-02T22:54:52.276Z,9.20
2019-05-02T22:57:22.579Z,9.20
2019-05-02T22:59:52.085Z,9.20
2019-05-02T23:02:22.132Z,9.20
2019-05-02T23:04:52.635Z,9.20
2019-05-02T23:07:22.686Z,9.30
2019-05-02T23:09:52.847Z,9.20
2019-05-02T23:12:24.907Z,9.30
2019-05-02T23:14:53.401Z,9.20
2019-05-02T23:17:23.190Z,9.30
2019-05-02T23:19:55.618Z,9.30
2019-05-02T23:22:24.907Z,9.40
2019-05-02T23:24:55.885Z,9.30
2019-05-02T23:27:36.028Z,9.40
2019-05-02T23:30:14.161Z,9.40
2019-05-02T23:32:43.513Z,9.40
2019-05-02T23:35:13.224Z,9.40
2019-05-02T23:37:43.005Z,9.30
2019-05-02T23:40:13.152Z,9.40
2019-05-02T23:42:42.444Z,9.40
2019-05-02T23:45:12.498Z,9.30
2019-05-02T23:47:42.192Z,9.40
2019-05-02T23:50:12.285Z,9.40
2019-05-02T23:52:41.639Z,9.50
2019-05-02T23:55:12.174Z,9.50
2019-05-02T23:57:42.144Z,9.40
